Swannanoa, NC (28778)

1:25 PM EDT on July 03, 2015 (GMT -0400)
Carolina Haven | | Change Station
CLOSE
Current Station
Personal Weather Station
Location: Black Mountain, NC
Elevation: 2369 ft
Nearby Weather Stations

Elev 2369 ft 35.62 °N, 82.34 °W | Updated 5 seconds ago

Overcast
Overcast
76.3 °F
Feels Like 78 °F
N
0.0
Wind Variable Wind from ENE
Gusts 0.0 mph

Today
High -- | Low -- °F
--% Chance of Precip.
Yesterday
High -- | Low -- °F
Precip. -- in
6:18 AM 8:49 PM
Waning Gibbous, 97% visible
Pressure 29.92 in
Visibility 10.0 miles
Clouds Few 1700 ft
Scattered Clouds 7500 ft
Scattered Clouds 10000 ft
Heat Index 78 °F
Dew Point 68 °F
Humidity 76%
Rainfall 0.05 in
Snow Depth Not available.
UV 5.0 out of 12
Pollen .50 out of 12
Air Quality Not available.
Flu Activity Not available.
METAR KAVL 031654Z 21003KT 10SM FEW017 SCT075 SCT100 23/18 A2999 RMK AO2 SLP131 T02330183

More Conditions Fewer Conditions

Pressure 29.92 in
Visibility 10.0 miles
Clouds Few 1700 ft
Scattered Clouds 7500 ft
Scattered Clouds 10000 ft
Heat Index 78 °F
Dew Point 68 °F
Humidity 76%
Rainfall 0.05 in
Snow Depth Not available.
UV 5.0 out of 12
Pollen .50 out of 12
Air Quality Not available.
Flu Activity Not available.
METAR KAVL 031654Z 21003KT 10SM FEW017 SCT075 SCT100 23/18 A2999 RMK AO2 SLP131 T02330183

More Conditions Fewer Conditions

10-Day Weather Forecast

×

Almanac

Astronomy

Jul. 03, 2015 Rise Set
Actual Time
Civil Twilight
Nautical Twilight
Astronomical Twilight
Moon
Length of Visible Light
Length of Day
Tomorrow will be .
, % of the Moon is Illuminated

Today's Extremes

State Highs State Lows

Community

WunderPhotos

Upload Photos

1,834,718 photos uploaded!

WunderBlogs® & News

Nearby

Air Quality

  Air Quality AQ Index Pollutant
Not available.

Snow Depth

Station Depth Elevation

Earthquake Activity

City Distance Mag. Time & Date
Minimum magnitude displayed is 2.5.

Coastal Water Temperatures

Place Temperature

Stations

Nearby Weather Stations

Station Location Temp. Windchill Dew Point Humidity Wind Precip. Elev Updated Type